Time;durP1;ratioP1;P1;durP2;ratioP2;P2;SDS_P1;SDS_P2;PMS_P1;PMS_P2;Temp;Humidity;BMP_temperature;BMP_pressure;BME280_temperature;BME280_humidity;BME280_pressure;Samples;Min_cycle;Max_cycle;Signal;HPM_P1;HPM_P2
2021/01/13 00:01:38;;;;;;;9.63;7.05;;;1.40;99.90;;;;;;6189804;23;20005;-75
2021/01/13 00:04:05;;;;;;;10.32;7.57;;;1.40;99.90;;;;;;6216280;23;20032;-74
2021/01/13 00:06:31;;;;;;;12.98;7.60;;;1.30;99.90;;;;;;6189803;23;20088;-75
2021/01/13 00:08:56;;;;;;;10.13;6.55;;;1.40;99.90;;;;;;6189770;23;20072;-77
2021/01/13 00:11:22;;;;;;;8.70;6.15;;;1.50;99.90;;;;;;6216295;23;20001;-75
2021/01/13 00:13:47;;;;;;;10.25;7.10;;;1.50;99.90;;;;;;6216432;23;20063;-74
2021/01/13 00:16:14;;;;;;;9.45;6.60;;;1.50;99.90;;;;;;6189716;23;20014;-74
2021/01/13 00:18:40;;;;;;;10.05;6.30;;;1.40;99.90;;;;;;6189547;23;20012;-74
2021/01/13 00:21:12;;;;;;;9.48;6.03;;;1.30;99.90;;;;;;6216218;23;20432;-74
2021/01/13 00:23:40;;;;;;;9.67;7.00;;;1.30;99.90;;;;;;6189819;23;20000;-77
2021/01/13 00:26:06;;;;;;;9.55;6.20;;;1.30;99.90;;;;;;6216296;23;20242;-77
2021/01/13 00:28:33;;;;;;;10.15;6.85;;;1.30;99.90;;;;;;6189559;23;20499;-76
2021/01/13 00:30:58;;;;;;;9.43;6.88;;;1.20;99.90;;;;;;6216242;23;20012;-76
2021/01/13 00:33:24;;;;;;;13.35;7.75;;;1.10;99.90;;;;;;6216194;23;20339;-76
2021/01/13 00:35:49;;;;;;;10.02;7.00;;;0.90;99.90;;;;;;6216803;23;20000;-74
2021/01/13 00:38:16;;;;;;;9.07;6.45;;;0.80;99.90;;;;;;6216219;23;20036;-74
2021/01/13 00:40:41;;;;;;;11.63;7.50;;;0.80;99.90;;;;;;6216125;23;20007;-76
2021/01/13 00:43:07;;;;;;;11.90;7.90;;;0.60;99.90;;;;;;6189440;23;20004;-76
2021/01/13 00:45:32;;;;;;;13.02;8.57;;;0.60;99.90;;;;;;6216086;23;20011;-76
2021/01/13 00:48:00;;;;;;;12.18;8.02;;;0.50;99.90;;;;;;6189366;23;20035;-76
2021/01/13 00:50:26;;;;;;;14.38;8.30;;;0.50;99.90;;;;;;6216059;23;20008;-76
2021/01/13 00:52:52;;;;;;;14.48;9.20;;;0.40;99.90;;;;;;6216060;23;20131;-76
2021/01/13 00:55:18;;;;;;;14.88;9.35;;;0.30;99.90;;;;;;6189405;23;20452;-74
2021/01/13 00:57:48;;;;;;;14.02;9.32;;;0.20;99.90;;;;;;6215739;23;20019;-74
2021/01/13 01:00:14;;;;;;;15.98;10.07;;;0.20;99.90;;;;;;6189318;23;20055;-76
2021/01/13 01:02:40;;;;;;;17.20;10.35;;;0.10;99.90;;;;;;6189151;23;20187;-76
2021/01/13 01:05:06;;;;;;;17.50;9.73;;;0.00;99.90;;;;;;6189393;23;20024;-76
2021/01/13 01:07:32;;;;;;;16.00;9.75;;;0.00;99.90;;;;;;6215794;23;20001;-76
2021/01/13 01:09:57;;;;;;;17.95;10.23;;;0.10;99.90;;;;;;6215864;23;20055;-76
2021/01/13 01:12:23;;;;;;;19.75;11.23;;;0.00;99.90;;;;;;6216104;23;20079;-76
2021/01/13 01:14:48;;;;;;;17.67;11.55;;;0.00;99.90;;;;;;6215811;23;20000;-76
2021/01/13 01:17:15;;;;;;;18.88;11.05;;;0.00;99.90;;;;;;6215721;23;20007;-76
2021/01/13 01:19:40;;;;;;;19.55;11.75;;;0.00;99.90;;;;;;6215808;23;20437;-76
2021/01/13 01:22:06;;;;;;;20.05;11.70;;;0.10;99.90;;;;;;6189058;23;20001;-76
2021/01/13 01:24:31;;;;;;;21.85;11.60;;;0.10;99.90;;;;;;6215740;23;20043;-76
2021/01/13 01:26:57;;;;;;;21.85;11.60;;;0.20;99.90;;;;;;6215678;23;20031;-76
2021/01/13 01:29:23;;;;;;;20.38;11.48;;;0.30;99.90;;;;;;6216418;23;20011;-76
2021/01/13 01:31:50;;;;;;;22.38;12.02;;;0.40;99.90;;;;;;6215605;23;20016;-76
2021/01/13 01:34:15;;;;;;;17.58;11.05;;;0.50;99.90;;;;;;6215683;23;20008;-76
2021/01/13 01:36:41;;;;;;;20.08;10.88;;;0.60;99.90;;;;;;6215654;23;20320;-76
2021/01/13 01:39:08;;;;;;;19.67;11.27;;;0.60;99.90;;;;;;6215624;23;20070;-76
2021/01/13 01:41:33;;;;;;;17.55;10.98;;;0.70;99.90;;;;;;6216200;23;20005;-76
2021/01/13 01:43:59;;;;;;;19.80;11.88;;;0.70;99.90;;;;;;6215489;23;19997;-76
2021/01/13 01:46:25;;;;;;;19.33;11.30;;;0.80;99.90;;;;;;6215861;23;20015;-74
2021/01/13 01:48:56;;;;;;;17.17;10.68;;;0.80;99.90;;;;;;6215493;23;20050;-76
2021/01/13 01:51:30;;;;;;;17.08;10.50;;;0.80;99.90;;;;;;6215263;23;19996;-76
2021/01/13 01:53:56;;;;;;;19.00;10.00;;;0.80;99.90;;;;;;6215718;23;19996;-76
2021/01/13 01:56:35;;;;;;;18.92;11.32;;;0.80;99.90;;;;;;6215482;23;20023;-76
2021/01/13 01:59:03;;;;;;;16.15;10.63;;;0.80;99.90;;;;;;6215737;23;20024;-76
2021/01/13 02:01:40;;;;;;;19.38;11.85;;;0.80;99.90;;;;;;6188833;23;20479;-76
2021/01/13 02:04:29;;;;;;;19.55;10.30;;;0.80;99.90;;;;;;6215551;23;20000;-76
2021/01/13 02:06:57;;;;;;;20.30;10.02;;;0.80;99.90;;;;;;6188858;23;20005;-74
2021/01/13 02:09:27;;;;;;;16.27;10.15;;;0.80;99.90;;;;;;6215367;23;20001;-76
2021/01/13 02:11:54;;;;;;;19.40;10.38;;;0.90;99.90;;;;;;6215206;23;20090;-76
2021/01/13 02:14:21;;;;;;;15.57;9.65;;;0.80;99.90;;;;;;6215272;23;20005;-76
2021/01/13 02:16:50;;;;;;;15.90;9.30;;;0.80;99.90;;;;;;6215332;23;20004;-76
2021/01/13 02:19:43;;;;;;;16.67;9.98;;;0.80;99.90;;;;;;6215278;23;20004;-76
2021/01/13 02:22:12;;;;;;;11.95;7.90;;;0.70;99.90;;;;;;6215351;23;20005;-76
2021/01/13 02:25:32;;;;;;;18.15;9.75;;;0.70;99.90;;;;;;6215237;23;20001;-76
2021/01/13 02:27:59;;;;;;;15.18;9.50;;;0.70;99.90;;;;;;6215068;23;20000;-76
2021/01/13 02:30:33;;;;;;;18.38;10.60;;;0.80;99.90;;;;;;6188790;23;20059;-76
2021/01/13 02:33:02;;;;;;;15.75;9.55;;;0.80;99.90;;;;;;6188912;23;20005;-76
2021/01/13 02:35:28;;;;;;;20.17;10.70;;;0.80;99.90;;;;;;6215207;23;20051;-74
2021/01/13 02:38:06;;;;;;;19.13;10.48;;;0.70;99.90;;;;;;6188528;23;20350;-74
2021/01/13 02:40:33;;;;;;;14.25;8.57;;;0.70;99.90;;;;;;6215329;23;20067;-76
2021/01/13 02:43:06;;;;;;;16.70;9.98;;;0.70;99.90;;;;;;6215175;23;20001;-76
2021/01/13 02:45:41;;;;;;;18.90;10.13;;;0.70;99.90;;;;;;6215307;23;19993;-76
2021/01/13 02:48:20;;;;;;;16.10;9.35;;;0.80;99.90;;;;;;6215138;23;20340;-76
2021/01/13 02:50:57;;;;;;;16.52;9.98;;;0.80;99.90;;;;;;6215617;23;20447;-76
2021/01/13 02:53:22;;;;;;;16.60;9.07;;;0.80;99.90;;;;;;6215532;23;20028;-76
2021/01/13 02:55:48;;;;;;;16.60;9.32;;;0.80;99.90;;;;;;6215323;23;20001;-76
2021/01/13 02:58:23;;;;;;;19.05;10.18;;;0.80;99.90;;;;;;6215177;23;20012;-74
2021/01/13 03:00:49;;;;;;;19.63;10.50;;;0.70;99.90;;;;;;6188520;23;20004;-76
2021/01/13 03:03:17;;;;;;;26.38;11.35;;;0.70;99.90;;;;;;6216439;23;20008;-76
2021/01/13 03:05:42;;;;;;;20.73;9.57;;;0.80;99.90;;;;;;6216706;23;20005;-76
2021/01/13 03:08:11;;;;;;;17.88;10.23;;;0.70;99.90;;;;;;6216903;23;19997;-76
2021/01/13 03:10:39;;;;;;;20.25;9.48;;;0.80;99.90;;;;;;6190347;23;19997;-76
2021/01/13 03:13:07;;;;;;;18.38;10.10;;;0.70;99.90;;;;;;6190392;23;20075;-76
2021/01/13 03:15:36;;;;;;;19.95;10.43;;;0.70;99.90;;;;;;6217022;23;20004;-76
2021/01/13 03:18:05;;;;;;;19.50;10.18;;;0.70;99.90;;;;;;6216862;23;20348;-76
2021/01/13 03:20:34;;;;;;;18.83;10.43;;;0.70;99.90;;;;;;6217248;23;20004;-76
2021/01/13 03:23:12;;;;;;;21.90;10.00;;;0.70;99.90;;;;;;6216889;23;20012;-76
2021/01/13 03:25:49;;;;;;;16.10;10.02;;;0.80;99.90;;;;;;6190329;23;20368;-76
2021/01/13 03:28:17;;;;;;;18.58;9.25;;;0.70;99.90;;;;;;6216741;23;20424;-76
2021/01/13 03:30:48;;;;;;;17.70;9.13;;;0.80;99.90;;;;;;6216811;23;20008;-76
2021/01/13 03:33:23;;;;;;;14.27;9.18;;;0.80;99.90;;;;;;6217176;23;20433;-76
2021/01/13 03:36:11;;;;;;;17.27;9.93;;;0.80;99.90;;;;;;6190190;23;20047;-76
2021/01/13 03:39:01;;;;;;;18.58;10.15;;;0.70;99.90;;;;;;6216535;23;20448;-76
2021/01/13 03:41:34;;;;;;;18.70;10.60;;;0.70;99.90;;;;;;6216727;23;20008;-76
2021/01/13 03:44:08;;;;;;;19.73;10.05;;;0.60;99.90;;;;;;6216785;23;20070;-76
2021/01/13 03:46:34;;;;;;;22.00;9.80;;;0.60;99.90;;;;;;6216705;23;20062;-76
2021/01/13 03:49:03;;;;;;;17.67;10.27;;;0.50;99.90;;;;;;6217000;23;20080;-76
2021/01/13 03:51:56;;;;;;;16.75;9.40;;;0.60;99.90;;;;;;6216650;23;20001;-76
2021/01/13 03:54:25;;;;;;;19.58;9.63;;;0.60;99.90;;;;;;6216684;23;20023;-76
2021/01/13 03:57:05;;;;;;;17.40;10.63;;;0.70;99.90;;;;;;6189750;23;20051;-76
2021/01/13 03:59:52;;;;;;;21.23;10.30;;;0.60;99.90;;;;;;6216568;23;20004;-76
2021/01/13 04:02:26;;;;;;;17.30;10.43;;;0.60;99.90;;;;;;6189796;23;20004;-76
2021/01/13 04:05:13;;;;;;;20.50;9.88;;;0.60;99.90;;;;;;6216501;23;20023;-76
2021/01/13 04:07:39;;;;;;;19.95;10.27;;;0.40;99.90;;;;;;6216451;23;20081;-76
2021/01/13 04:10:13;;;;;;;16.33;9.30;;;0.30;99.90;;;;;;6189891;23;20372;-76
2021/01/13 04:12:51;;;;;;;18.17;10.27;;;0.30;99.90;;;;;;6216487;23;20000;-76
2021/01/13 04:15:19;;;;;;;18.25;9.60;;;0.20;99.90;;;;;;6189424;23;20007;-76
2021/01/13 04:17:46;;;;;;;20.27;11.20;;;0.20;99.90;;;;;;6216303;23;20348;-76
2021/01/13 04:20:12;;;;;;;20.15;10.10;;;0.20;99.90;;;;;;6216807;23;20000;-76
2021/01/13 04:22:38;;;;;;;18.80;10.13;;;0.20;99.90;;;;;;6216142;23;20048;-76
2021/01/13 04:25:04;;;;;;;17.77;10.38;;;0.20;99.90;;;;;;6216615;23;20005;-76
2021/01/13 04:27:30;;;;;;;19.63;10.02;;;0.20;99.90;;;;;;6216206;23;20005;-76
2021/01/13 04:29:56;;;;;;;19.38;9.93;;;0.20;99.90;;;;;;6216172;23;20092;-76
2021/01/13 04:32:22;;;;;;;19.02;10.10;;;0.20;99.90;;;;;;6190545;23;20012;-76
2021/01/13 04:34:47;;;;;;;20.77;11.40;;;0.20;99.90;;;;;;6216515;23;20035;-76
2021/01/13 04:37:13;;;;;;;21.20;10.20;;;0.20;99.90;;;;;;6189534;23;20008;-76
2021/01/13 04:39:40;;;;;;;17.67;10.15;;;0.20;99.90;;;;;;6216158;23;20051;-76
2021/01/13 04:42:08;;;;;;;22.70;11.00;;;0.20;99.90;;;;;;6216360;23;20490;-76
2021/01/13 04:44:55;;;;;;;20.10;11.45;;;0.20;99.90;;;;;;6216470;23;20332;-76
2021/01/13 04:47:39;;;;;;;20.60;11.07;;;0.20;99.90;;;;;;6189510;23;20004;-76
2021/01/13 04:50:09;;;;;;;21.50;11.43;;;0.20;99.90;;;;;;6189447;23;20001;-76
2021/01/13 04:52:41;;;;;;;23.60;11.65;;;0.20;99.90;;;;;;6216033;23;20005;-76
2021/01/13 04:55:20;;;;;;;23.63;11.60;;;0.20;99.90;;;;;;6216425;23;20417;-76
2021/01/13 04:58:07;;;;;;;22.23;10.75;;;0.10;99.90;;;;;;6232255;22;20065;-74
2021/01/13 05:00:59;;;;;;;26.35;12.02;;;0.10;99.90;;;;;;6249786;22;20011;-74
2021/01/13 05:04:01;;;;;;;25.42;13.02;;;0.10;99.90;;;;;;6193025;22;20015;-74
2021/01/13 05:06:47;;;;;;;21.85;11.73;;;0.00;99.90;;;;;;6149848;22;20012;-74
2021/01/13 05:09:13;;;;;;;24.55;12.10;;;0.00;99.90;;;;;;6249565;22;20344;-74
2021/01/13 05:11:41;;;;;;;23.55;12.07;;;0.00;99.90;;;;;;6244859;23;20004;-74
2021/01/13 05:14:08;;;;;;;28.70;11.65;;;0.00;99.90;;;;;;6246232;23;19996;-74
2021/01/13 05:16:59;;;;;;;27.38;12.98;;;0.00;99.90;;;;;;6245534;23;20088;-74
2021/01/13 05:19:43;;;;;;;27.88;12.73;;;0.00;99.90;;;;;;6249129;22;20015;-74
2021/01/13 05:22:15;;;;;;;26.50;13.75;;;-0.10;99.90;;;;;;6247065;23;20139;-74
2021/01/13 05:24:41;;;;;;;24.10;13.00;;;-0.10;99.90;;;;;;6246340;23;19996;-74
2021/01/13 05:27:36;;;;;;;27.90;13.52;;;-0.20;99.90;;;;;;6244283;22;20008;-74
2021/01/13 05:30:09;;;;;;;28.55;14.48;;;-0.20;99.90;;;;;;6246158;23;20071;-74
2021/01/13 05:32:38;;;;;;;28.60;13.52;;;-0.30;99.90;;;;;;6245105;23;20435;-74
2021/01/13 05:35:05;;;;;;;25.58;12.70;;;-0.30;99.90;;;;;;6246152;23;19996;-74
2021/01/13 05:37:49;;;;;;;31.02;14.63;;;-0.40;99.90;;;;;;6244351;22;20019;-75
2021/01/13 05:40:16;;;;;;;26.67;12.77;;;-0.50;99.90;;;;;;6246140;23;20004;-74
2021/01/13 05:42:43;;;;;;;29.20;13.93;;;-0.60;99.90;;;;;;6244405;23;20000;-74
2021/01/13 05:45:10;;;;;;;30.70;13.98;;;-0.60;99.90;;;;;;6246114;23;20003;-74
2021/01/13 05:48:00;;;;;;;28.38;14.10;;;-0.60;99.90;;;;;;6219170;23;20046;-74
2021/01/13 05:50:26;;;;;;;27.77;13.27;;;-0.60;99.90;;;;;;6246741;23;20000;-74
2021/01/13 05:52:54;;;;;;;24.63;13.90;;;-0.60;99.90;;;;;;6246243;23;20004;-74
2021/01/13 05:55:20;;;;;;;33.63;14.93;;;-0.60;99.90;;;;;;6244348;23;20004;-74
2021/01/13 05:57:57;;;;;;;30.95;14.82;;;-0.50;99.90;;;;;;6245935;22;20008;-74
2021/01/13 06:00:24;;;;;;;34.85;15.52;;;-0.50;99.90;;;;;;6246005;23;20000;-74
2021/01/13 06:02:59;;;;;;;34.92;14.98;;;-0.50;99.90;;;;;;6245916;23;20000;-74
2021/01/13 06:05:30;;;;;;;28.00;14.45;;;-0.40;99.90;;;;;;6246285;23;20000;-74
2021/01/13 06:07:58;;;;;;;28.70;14.23;;;-0.30;99.90;;;;;;6244173;22;19996;-74
2021/01/13 06:10:34;;;;;;;32.05;14.30;;;-0.20;99.90;;;;;;6244299;23;20435;-74
2021/01/13 06:13:03;;;;;;;30.10;14.48;;;-0.20;99.90;;;;;;6244448;22;20036;-74
2021/01/13 06:15:29;;;;;;;26.40;13.73;;;-0.10;99.90;;;;;;6245905;23;20018;-74
2021/01/13 06:17:56;;;;;;;31.45;13.55;;;-0.10;99.90;;;;;;6245919;22;19997;-74
2021/01/13 06:20:31;;;;;;;32.72;14.13;;;-0.10;99.90;;;;;;6246128;23;20079;-74
2021/01/13 06:22:59;;;;;;;29.02;13.38;;;0.00;99.90;;;;;;6244151;23;20412;-74
2021/01/13 06:25:25;;;;;;;29.85;13.85;;;0.00;99.90;;;;;;6244465;23;20455;-74
2021/01/13 06:27:57;;;;;;;78.22;35.65;;;0.00;99.90;;;;;;6244252;22;20466;-74
2021/01/13 06:30:31;;;;;;;35.00;16.23;;;0.10;99.90;;;;;;6245878;23;20031;-74
2021/01/13 06:33:09;;;;;;;42.30;19.38;;;0.20;99.90;;;;;;6246294;23;20230;-75
2021/01/13 06:35:43;;;;;;;39.50;18.73;;;0.20;99.90;;;;;;6245983;23;20004;-74
2021/01/13 06:38:42;;;;;;;29.90;15.48;;;0.30;99.90;;;;;;6247307;22;20008;-74
2021/01/13 06:41:08;;;;;;;27.50;13.48;;;0.30;99.90;;;;;;6221123;23;20412;-74
2021/01/13 06:43:34;;;;;;;31.08;17.05;;;0.30;99.90;;;;;;6220771;23;20008;-74
2021/01/13 06:46:00;;;;;;;33.17;15.82;;;0.20;99.90;;;;;;6247802;23;20000;-75
2021/01/13 06:48:27;;;;;;;28.67;14.43;;;0.20;99.90;;;;;;6247857;22;20000;-75
2021/01/13 06:50:57;;;;;;;34.15;16.48;;;0.20;99.90;;;;;;6248231;23;20000;-75
2021/01/13 06:53:32;;;;;;;47.95;22.70;;;0.10;99.90;;;;;;6247721;23;20004;-75
2021/01/13 06:56:00;;;;;;;38.80;18.38;;;0.10;99.90;;;;;;6246047;23;20007;-74
2021/01/13 06:58:27;;;;;;;38.90;17.60;;;0.10;99.90;;;;;;6247644;22;20022;-76
2021/01/13 07:01:01;;;;;;;35.90;15.93;;;0.10;99.90;;;;;;6220977;23;20010;-76
2021/01/13 07:03:31;;;;;;;29.13;14.45;;;0.20;99.90;;;;;;6248080;23;20007;-77
2021/01/13 07:06:09;;;;;;;29.42;13.77;;;0.20;99.90;;;;;;6251032;23;20079;-77
2021/01/13 07:08:36;;;;;;;34.92;15.35;;;0.20;99.90;;;;;;6247479;22;20377;-77
2021/01/13 07:11:07;;;;;;;28.10;14.27;;;0.20;99.90;;;;;;6246606;23;20118;-77
2021/01/13 07:13:36;;;;;;;27.95;13.25;;;0.20;99.90;;;;;;6246552;23;20088;-77
2021/01/13 07:16:03;;;;;;;25.02;13.15;;;0.10;99.90;;;;;;6247776;23;20000;-77
2021/01/13 07:18:31;;;;;;;24.98;12.35;;;0.00;99.90;;;;;;6245847;22;20043;-78
2021/01/13 07:21:05;;;;;;;26.77;12.90;;;-0.10;99.90;;;;;;6221382;23;20004;-77
2021/01/13 07:23:31;;;;;;;22.75;12.77;;;-0.10;99.90;;;;;;6247485;23;20000;-77
2021/01/13 07:25:58;;;;;;;24.27;11.40;;;-0.20;99.90;;;;;;6247331;23;19992;-77
2021/01/13 07:28:25;;;;;;;26.35;12.73;;;-0.20;99.90;;;;;;6247428;22;20442;-77
2021/01/13 07:30:52;;;;;;;17.95;9.80;;;-0.30;99.90;;;;;;6220400;23;20003;-77
2021/01/13 07:33:19;;;;;;;20.98;9.45;;;-0.30;99.90;;;;;;6245702;23;20126;-77
2021/01/13 07:35:47;;;;;;;19.63;9.95;;;-0.20;99.90;;;;;;6245915;23;20004;-77
2021/01/13 07:38:19;;;;;;;20.55;10.20;;;-0.20;99.90;;;;;;6247093;22;20004;-77
2021/01/13 07:41:04;;;;;;;16.98;9.75;;;-0.10;99.90;;;;;;6245744;23;20031;-77
2021/01/13 07:44:07;;;;;;;22.63;11.60;;;0.00;99.90;;;;;;6246924;23;19996;-77
2021/01/13 07:46:34;;;;;;;23.23;9.80;;;0.20;99.90;;;;;;6246907;23;19996;-76
2021/01/13 07:49:18;;;;;;;15.70;8.73;;;0.30;99.90;;;;;;6219587;23;20046;-76
2021/01/13 07:51:54;;;;;;;17.85;9.07;;;0.40;99.90;;;;;;6220205;23;20008;-77
2021/01/13 07:54:30;;;;;;;14.52;7.72;;;0.60;99.90;;;;;;6245526;23;20023;-77
2021/01/13 07:56:58;;;;;;;10.60;7.25;;;0.80;99.90;;;;;;6246988;23;20395;-77
2021/01/13 07:59:41;;;;;;;13.13;6.80;;;1.00;99.90;;;;;;6245142;22;20095;-77
2021/01/13 08:02:09;;;;;;;;;;;1.10;99.90;;;;;;6245943;23;20004;-77
2021/01/13 08:04:53;;;;;;;13.88;6.93;;;1.20;99.90;;;;;;6220417;23;19906;-77
2021/01/13 08:07:37;;;;;;;16.52;6.15;;;1.30;99.90;;;;;;6220489;22;20000;-77
2021/01/13 08:10:04;;;;;;;10.82;6.57;;;1.40;99.90;;;;;;6247954;23;20000;-77
2021/01/13 08:13:08;;;;;;;11.90;5.75;;;1.40;99.90;;;;;;6247897;23;20004;-77
2021/01/13 08:16:04;;;;;;;12.82;5.75;;;1.40;99.90;;;;;;6202510;23;20011;-77
2021/01/13 08:19:17;;;;;;;14.68;5.82;;;1.40;99.90;;;;;;6246691;22;20427;-77
2021/01/13 08:22:05;;;;;;;13.57;6.43;;;1.50;99.90;;;;;;6245220;23;20011;-77
2021/01/13 08:24:37;;;;;;;11.80;5.78;;;1.60;99.90;;;;;;6246901;23;20000;-77
2021/01/13 08:27:04;;;;;;;11.45;5.95;;;1.80;99.90;;;;;;6246695;23;19996;-77
2021/01/13 08:29:40;;;;;;;10.10;5.53;;;1.90;99.90;;;;;;6246464;23;20005;-77
2021/01/13 08:32:11;;;;;;;12.35;5.38;;;2.00;99.90;;;;;;6244827;23;20008;-77
2021/01/13 08:34:49;;;;;;;15.63;5.47;;;2.10;99.90;;;;;;6219649;23;20091;-76
2021/01/13 08:37:15;;;;;;;15.60;5.47;;;2.10;99.90;;;;;;6246840;22;20079;-78
2021/01/13 08:39:44;;;;;;;11.88;6.32;;;2.00;99.90;;;;;;6246413;23;20075;-77
2021/01/13 08:42:19;;;;;;;13.45;5.35;;;2.00;99.90;;;;;;6246697;23;20004;-76
2021/01/13 08:44:45;;;;;;;17.83;6.35;;;2.00;99.90;;;;;;6219608;23;20087;-77
2021/01/13 08:47:11;;;;;;;12.70;5.03;;;2.00;99.90;;;;;;6244979;22;20007;-76
2021/01/13 08:49:37;;;;;;;14.63;5.32;;;2.00;99.90;;;;;;6246865;23;20000;-76
2021/01/13 08:52:22;;;;;;;14.40;5.82;;;2.10;99.90;;;;;;6246443;23;20032;-76
2021/01/13 08:54:56;;;;;;;21.45;6.70;;;1.90;99.90;;;;;;6246225;23;20432;-76
2021/01/13 08:57:26;;;;;;;21.70;7.75;;;2.00;99.90;;;;;;6246111;22;20030;-76
2021/01/13 08:59:53;;;;;;;19.35;7.07;;;2.10;99.90;;;;;;6244734;23;20012;-75
2021/01/13 09:02:23;;;;;;;16.92;6.50;;;2.30;99.90;;;;;;6246027;23;20038;-76
2021/01/13 09:04:55;;;;;;;11.68;5.90;;;2.60;99.90;;;;;;6246259;23;20004;-76
2021/01/13 09:07:24;;;;;;;10.93;5.22;;;3.10;99.90;;;;;;6246408;22;19996;-76
2021/01/13 09:10:05;;;;;;;9.50;5.65;;;3.90;99.90;;;;;;6244747;23;20004;-76
2021/01/13 09:12:35;;;;;;;13.32;6.13;;;3.80;99.90;;;;;;6246219;23;20004;-76
2021/01/13 09:15:07;;;;;;;11.18;5.57;;;3.50;99.90;;;;;;6246395;23;20325;-76
2021/01/13 09:17:36;;;;;;;10.50;5.37;;;3.50;99.90;;;;;;6246342;22;20355;-76
2021/01/13 09:20:17;;;;;;;10.65;5.43;;;3.50;99.90;;;;;;6244631;23;20004;-75
2021/01/13 09:22:55;;;;;;;15.98;6.97;;;3.40;99.90;;;;;;6219156;23;20008;-77
2021/01/13 09:25:27;;;;;;;9.57;5.82;;;3.50;99.90;;;;;;6219455;23;20035;-76
2021/01/13 09:28:02;;;;;;;9.00;5.65;;;3.70;99.90;;;;;;6246093;22;20006;-76
2021/01/13 09:30:41;;;;;;;11.43;5.32;;;3.50;99.90;;;;;;6246144;23;20000;-75
2021/01/13 09:33:13;;;;;;;11.35;5.10;;;3.40;99.90;;;;;;6246220;23;20027;-76
2021/01/13 09:35:40;;;;;;;;;;;3.10;99.90;;;;;;6245772;23;20016;-76
2021/01/13 09:38:13;;;;;;;13.73;6.07;;;3.20;99.90;;;;;;6245965;22;19961;-76
2021/01/13 09:41:02;;;;;;;13.60;7.07;;;3.20;99.90;;;;;;6246121;23;20436;-75
2021/01/13 09:43:44;;;;;;;15.30;8.20;;;3.10;99.90;;;;;;6246318;23;20075;-76
2021/01/13 09:46:21;;;;;;;30.25;16.13;;;3.10;99.90;;;;;;6246330;23;20024;-75
2021/01/13 09:49:13;;;;;;;10.93;5.65;;;3.30;99.90;;;;;;6245993;22;20000;-75
2021/01/13 09:51:40;;;;;;;28.67;15.20;;;3.50;99.90;;;;;;6239628;23;20084;-76
2021/01/13 09:54:07;;;;;;;15.75;6.80;;;3.60;99.90;;;;;;6245891;23;20000;-74
2021/01/13 09:56:36;;;;;;;19.23;7.10;;;4.00;99.90;;;;;;6244398;23;20007;-73
2021/01/13 09:59:08;;;;;;;13.80;6.70;;;4.30;99.90;;;;;;6219074;23;20447;-74
2021/01/13 10:01:38;;;;;;;10.07;5.13;;;5.10;99.90;;;;;;6246358;23;20003;-74
2021/01/13 10:04:12;;;;;;;11.70;5.93;;;7.80;99.90;;;;;;6220309;23;20011;-74
2021/01/13 10:06:43;;;;;;;10.10;5.25;;;10.80;93.50;;;;;;6246013;23;19999;-74
2021/01/13 10:09:18;;;;;;;9.82;4.93;;;12.90;72.20;;;;;;6219045;23;20099;-75
2021/01/13 10:11:44;;;;;;;10.32;5.95;;;14.50;58.90;;;;;;6245649;23;20067;-74
2021/01/13 10:14:13;;;;;;;10.13;5.45;;;14.80;55.30;;;;;;6218830;23;20024;-75
2021/01/13 10:16:43;;;;;;;12.48;5.45;;;15.30;54.00;;;;;;6245859;23;20000;-75
2021/01/13 10:19:10;;;;;;;9.18;5.03;;;16.60;50.00;;;;;;6245906;22;20027;-75
2021/01/13 10:21:36;;;;;;;12.43;8.77;;;18.10;45.80;;;;;;6219018;23;20010;-75
2021/01/13 10:24:04;;;;;;;11.50;6.85;;;18.50;43.90;;;;;;6218828;23;20000;-77
2021/01/13 10:26:39;;;;;;;21.75;14.40;;;20.00;41.40;;;;;;6245709;23;20004;-76
2021/01/13 10:29:05;;;;;;;9.57;4.97;;;20.70;39.20;;;;;;6218837;23;20000;-77
2021/01/13 10:31:33;;;;;;;6.85;4.13;;;22.10;35.70;;;;;;6245741;23;20003;-77
2021/01/13 10:33:59;;;;;;;9.50;5.40;;;22.00;35.30;;;;;;6219245;23;20031;-77
2021/01/13 10:36:25;;;;;;;8.95;5.05;;;22.10;34.60;;;;;;6246151;23;20427;-77
2021/01/13 10:38:50;;;;;;;8.85;5.47;;;22.10;34.20;;;;;;6245878;22;20000;-76
2021/01/13 10:41:31;;;;;;;9.30;4.72;;;20.40;36.00;;;;;;6245713;23;20371;-77
2021/01/13 10:44:01;;;;;;;7.97;4.80;;;17.50;40.70;;;;;;6246121;23;20091;-77
2021/01/13 10:46:29;;;;;;;11.48;5.47;;;16.90;43.00;;;;;;6245689;23;20026;-77
2021/01/13 10:49:02;;;;;;;10.65;5.65;;;16.40;44.10;;;;;;6245653;22;20051;-77
2021/01/13 10:51:36;;;;;;;9.25;4.65;;;16.40;43.50;;;;;;6245662;23;19998;-77
2021/01/13 10:54:05;;;;;;;8.05;5.05;;;16.90;42.30;;;;;;6244251;23;19996;-77
2021/01/13 10:56:33;;;;;;;7.07;4.25;;;17.80;41.30;;;;;;6220819;23;20071;-77
2021/01/13 10:59:03;;;;;;;6.68;3.92;;;17.90;40.40;;;;;;6262814;22;20012;-76
2021/01/13 11:01:30;;;;;;;7.32;4.30;;;18.40;38.70;;;;;;6276242;22;20370;-76
2021/01/13 11:03:55;;;;;;;7.40;4.13;;;17.70;39.90;;;;;;6276594;22;20416;-76
2021/01/13 11:06:24;;;;;;;6.93;3.80;;;17.30;40.70;;;;;;6276792;22;19995;-76
2021/01/13 11:08:53;;;;;;;9.75;4.25;;;16.70;42.50;;;;;;6260172;22;20023;-76
2021/01/13 11:11:20;;;;;;;9.77;4.60;;;16.40;42.70;;;;;;6245679;23;20078;-76
2021/01/13 11:13:46;;;;;;;8.80;4.10;;;17.70;41.30;;;;;;6243996;23;20084;-76
2021/01/13 11:16:13;;;;;;;6.70;3.55;;;17.30;41.00;;;;;;6245899;23;20031;-76
2021/01/13 11:18:40;;;;;;;7.32;4.07;;;16.20;42.00;;;;;;6245695;22;20445;-76
2021/01/13 11:21:09;;;;;;;7.93;4.10;;;15.70;44.50;;;;;;6245533;23;20053;-76
2021/01/13 11:23:44;;;;;;;7.75;3.63;;;16.70;43.00;;;;;;6246396;23;20057;-76
2021/01/13 11:26:11;;;;;;;7.28;4.07;;;17.00;41.20;;;;;;6220670;23;20001;-76
2021/01/13 11:28:39;;;;;;;6.78;3.70;;;16.80;41.70;;;;;;6247263;22;20558;-76
2021/01/13 11:31:05;;;;;;;7.32;4.00;;;17.10;41.60;;;;;;6245793;23;20008;-76
2021/01/13 11:33:31;;;;;;;7.43;4.60;;;17.30;41.60;;;;;;6220442;23;20008;-76
2021/01/13 11:35:56;;;;;;;8.75;4.20;;;17.30;41.50;;;;;;6247235;23;20010;-76
2021/01/13 11:38:36;;;;;;;7.45;3.95;;;18.00;40.50;;;;;;6220495;23;20050;-76
2021/01/13 11:41:41;;;;;;;5.90;3.78;;;17.80;39.60;;;;;;6247289;23;20003;-76
2021/01/13 11:44:21;;;;;;;6.28;4.13;;;17.80;40.80;;;;;;6247155;23;20014;-73
2021/01/13 11:46:57;;;;;;;7.63;3.90;;;18.70;38.90;;;;;;6247648;23;20011;-74
2021/01/13 11:49:26;;;;;;;5.55;3.65;;;18.40;39.10;;;;;;6247367;22;20054;-74
2021/01/13 11:51:53;;;;;;;5.38;3.78;;;18.30;38.90;;;;;;6247467;23;20028;-73
2021/01/13 11:54:41;;;;;;;7.50;4.40;;;17.80;39.70;;;;;;6220425;23;20087;-75
2021/01/13 11:57:34;;;;;;;8.98;4.80;;;14.10;45.40;;;;;;6247196;23;20000;-75
2021/01/13 12:00:19;;;;;;;9.53;4.80;;;12.20;52.20;;;;;;6246963;22;20012;-76
2021/01/13 12:02:56;;;;;;;6.80;4.00;;;12.30;52.30;;;;;;6246901;23;20008;-76
2021/01/13 12:05:26;;;;;;;8.48;4.22;;;13.60;50.20;;;;;;6246505;23;20470;-75
2021/01/13 12:08:00;;;;;;;6.72;3.63;;;15.20;46.10;;;;;;6221377;22;20004;-76
2021/01/13 12:10:42;;;;;;;6.75;3.40;;;16.80;43.40;;;;;;6247980;23;20071;-76
2021/01/13 12:13:13;;;;;;;6.18;2.85;;;17.10;41.90;;;;;;6248046;23;20075;-76
2021/01/13 12:16:01;;;;;;;4.60;3.30;;;16.70;41.70;;;;;;6246846;23;20462;-75
2021/01/13 12:18:35;;;;;;;7.35;3.88;;;14.60;45.50;;;;;;6246875;22;20382;-75
2021/01/13 12:21:21;;;;;;;6.90;3.60;;;14.60;46.00;;;;;;6219949;23;20019;-75
2021/01/13 12:23:50;;;;;;;7.35;3.83;;;14.80;45.50;;;;;;6219819;23;20443;-76
2021/01/13 12:26:35;;;;;;;6.32;3.28;;;14.30;46.50;;;;;;6246783;23;20387;-76
2021/01/13 12:29:04;;;;;;;6.32;3.65;;;13.80;47.70;;;;;;6245099;22;20001;-76
2021/01/13 12:31:38;;;;;;;7.45;3.75;;;13.20;48.90;;;;;;6247028;23;19996;-76
2021/01/13 12:34:11;;;;;;;5.25;3.47;;;13.50;48.90;;;;;;6247011;23;20004;-76
2021/01/13 12:36:39;;;;;;;6.40;3.28;;;14.00;48.50;;;;;;6246872;23;20050;-76
2021/01/13 12:39:05;;;;;;;9.85;3.78;;;15.30;45.40;;;;;;6246553;22;20004;-76
2021/01/13 12:41:33;;;;;;;5.43;3.13;;;15.30;44.90;;;;;;6246516;23;20000;-76
2021/01/13 12:44:09;;;;;;;6.00;2.72;;;14.70;45.90;;;;;;6246533;23;20000;-76
2021/01/13 12:46:48;;;;;;;6.03;2.60;;;14.90;43.80;;;;;;6219730;23;20014;-75
2021/01/13 12:49:13;;;;;;;6.28;2.75;;;13.90;46.70;;;;;;6247135;22;20051;-76
2021/01/13 12:51:39;;;;;;;6.65;3.33;;;13.90;46.20;;;;;;6219567;23;20000;-76
2021/01/13 12:54:05;;;;;;;6.80;3.45;;;13.90;46.40;;;;;;6219788;23;20008;-76
2021/01/13 12:56:32;;;;;;;8.98;3.40;;;12.90;47.60;;;;;;6219533;23;20007;-75
2021/01/13 12:59:00;;;;;;;4.25;2.78;;;11.10;51.40;;;;;;6246154;22;20087;-75
2021/01/13 13:01:26;;;;;;;6.00;3.25;;;9.00;56.40;;;;;;6246470;23;20428;-75
2021/01/13 13:03:55;;;;;;;6.95;3.00;;;7.50;61.70;;;;;;6246612;23;20000;-75
2021/01/13 13:06:28;;;;;;;5.93;3.13;;;6.60;65.40;;;;;;6246515;23;20006;-75
2021/01/13 13:08:53;;;;;;;;;;;6.10;68.10;;;;;;6246724;22;19996;-75